Time;durP1;ratioP1;P1;durP2;ratioP2;P2;SDS_P1;SDS_P2;PMS_P1;PMS_P2;Temp;Humidity;BMP_temperature;BMP_pressure;BME280_temperature;BME280_humidity;BME280_pressure;Samples;Min_cycle;Max_cycle;Signal;HPM_P1;HPM_P2
2022/11/09 00:02:16;;;;;;;17.67;11.65;;;14.00;80.20;;;;;;5017222;28;20025;-88
2022/11/09 00:04:42;;;;;;;16.80;11.50;;;14.10;79.70;;;;;;5014599;28;20030;-88
2022/11/09 00:07:08;;;;;;;18.10;12.10;;;14.10;79.70;;;;;;4995643;28;20040;-88
2022/11/09 00:09:33;;;;;;;20.70;12.30;;;14.00;80.00;;;;;;5029424;28;20477;-88
2022/11/09 00:12:03;;;;;;;18.52;11.88;;;14.00;79.50;;;;;;5028275;28;20622;-87
2022/11/09 00:14:30;;;;;;;23.27;12.52;;;14.00;79.70;;;;;;5021733;28;20058;-85
2022/11/09 00:16:56;;;;;;;18.98;11.75;;;14.00;79.70;;;;;;5022804;28;20079;-89
2022/11/09 00:19:22;;;;;;;19.95;12.13;;;13.90;79.70;;;;;;5035670;28;20017;-88
2022/11/09 00:21:48;;;;;;;22.52;13.75;;;13.90;80.20;;;;;;5021232;28;20033;-88
2022/11/09 00:24:14;;;;;;;19.80;12.77;;;13.90;80.00;;;;;;5031360;28;20033;-89
2022/11/09 00:26:39;;;;;;;19.70;12.65;;;13.90;80.40;;;;;;5024385;28;20041;-88
2022/11/09 00:29:05;;;;;;;19.85;13.18;;;13.80;80.60;;;;;;5032327;28;20037;-87
2022/11/09 00:31:31;;;;;;;19.52;12.80;;;13.80;80.40;;;;;;5022171;28;20065;-87
2022/11/09 00:33:57;;;;;;;25.77;15.43;;;13.70;80.40;;;;;;5023881;28;20033;-86
2022/11/09 00:36:24;;;;;;;20.38;13.82;;;;;;;;;;5017280;28;20022;-86
2022/11/09 00:38:51;;;;;;;23.52;13.40;;;13.40;81.40;;;;;;5029372;28;20385;-86
2022/11/09 00:41:17;;;;;;;18.27;11.43;;;13.40;81.20;;;;;;5023904;28;20022;-86
2022/11/09 00:43:43;;;;;;;19.73;12.88;;;13.40;81.30;;;;;;5029344;28;20034;-86
2022/11/09 00:46:09;;;;;;;20.83;12.80;;;13.40;81.90;;;;;;5018577;28;20062;-86
2022/11/09 00:48:35;;;;;;;20.08;12.48;;;13.40;82.10;;;;;;5013229;28;20465;-86
2022/11/09 00:51:20;;;;;;;22.25;13.40;;;13.40;82.10;;;;;;5036183;28;20026;-86
2022/11/09 00:53:47;;;;;;;25.58;15.98;;;13.40;82.40;;;;;;5030604;28;20026;-86
2022/11/09 00:56:13;;;;;;;25.50;15.70;;;13.00;82.90;;;;;;5016310;28;20045;-86
2022/11/09 00:58:39;;;;;;;26.20;17.05;;;12.90;84.00;;;;;;5004106;28;20616;-86
2022/11/09 01:01:11;;;;;;;28.25;15.88;;;12.80;84.80;;;;;;5008829;28;20401;-85
2022/11/09 01:03:37;;;;;;;21.27;13.15;;;12.80;84.60;;;;;;5012326;28;20450;-85
2022/11/09 01:06:04;;;;;;;18.85;12.90;;;12.80;84.20;;;;;;5018060;28;20109;-85
2022/11/09 01:08:31;;;;;;;24.65;16.15;;;12.80;84.00;;;;;;5029931;28;20513;-85
2022/11/09 01:10:56;;;;;;;23.10;14.05;;;12.90;84.50;;;;;;5033110;28;20041;-85
2022/11/09 01:13:22;;;;;;;41.00;15.50;;;13.00;84.40;;;;;;5034935;28;20374;-85
2022/11/09 01:15:51;;;;;;;23.83;14.00;;;12.90;84.70;;;;;;5024869;28;20521;-86
2022/11/09 01:18:17;;;;;;;21.38;12.93;;;12.90;84.30;;;;;;5017139;28;20029;-85
2022/11/09 01:20:46;;;;;;;28.13;16.20;;;12.90;84.40;;;;;;5015079;28;20104;-84
2022/11/09 01:23:13;;;;;;;23.58;14.15;;;;;;;;;;5026061;28;20478;-85
2022/11/09 01:25:38;;;;;;;23.52;14.07;;;12.80;84.30;;;;;;5028904;28;20026;-85
2022/11/09 01:28:05;;;;;;;17.15;11.38;;;;;;;;;;5016089;28;20541;-85
2022/11/09 01:30:37;;;;;;;20.20;12.48;;;13.00;95.60;;;;;;5019831;28;20065;-87
2022/11/09 01:33:07;;;;;;;19.33;12.15;;;12.90;84.20;;;;;;5028962;28;20045;-86
2022/11/09 01:35:35;;;;;;;22.27;13.65;;;13.10;84.10;;;;;;5025138;28;20495;-87
2022/11/09 01:38:02;;;;;;;17.75;12.63;;;13.20;83.90;;;;;;5000002;28;20084;-86
2022/11/09 01:40:29;;;;;;;19.67;12.98;;;13.20;83.70;;;;;;5034188;28;20036;-83
2022/11/09 01:42:55;;;;;;;18.58;11.75;;;13.30;83.40;;;;;;5026263;28;20033;-83
2022/11/09 01:45:24;;;;;;;21.52;12.98;;;13.30;83.90;;;;;;5002274;28;20052;-83
2022/11/09 01:48:13;;;;;;;19.63;12.00;;;13.40;83.50;;;;;;5032982;28;20481;-83
2022/11/09 01:51:31;;;;;;;20.63;12.68;;;13.40;83.40;;;;;;5014920;28;20065;-83
2022/11/09 01:54:21;;;;;;;21.85;12.55;;;13.40;83.60;;;;;;4986320;28;20132;-79
2022/11/09 01:56:49;;;;;;;22.48;13.38;;;;;;;;;;5028953;28;20037;-78
2022/11/09 01:59:19;;;;;;;18.77;12.52;;;13.30;83.30;;;;;;5029030;28;20071;-79
2022/11/09 02:01:45;;;;;;;19.88;12.70;;;13.30;83.30;;;;;;5033641;28;20033;-81
2022/11/09 02:04:35;;;;;;;21.92;13.18;;;13.30;83.40;;;;;;5030597;28;20041;-78
2022/11/09 02:07:01;;;;;;;20.10;12.75;;;13.40;83.90;;;;;;5026596;28;20030;-78
2022/11/09 02:09:42;;;;;;;21.70;13.15;;;13.30;83.80;;;;;;5025509;28;20429;-86
2022/11/09 02:12:08;;;;;;;21.67;13.05;;;13.30;84.10;;;;;;5016952;28;20061;-86
2022/11/09 02:14:35;;;;;;;22.90;13.77;;;13.20;84.40;;;;;;5028688;28;20473;-86
2022/11/09 02:17:01;;;;;;;25.60;14.98;;;13.10;84.60;;;;;;5020466;28;20039;-86
2022/11/09 02:19:26;;;;;;;20.35;12.63;;;13.10;84.70;;;;;;5015833;28;20037;-85
2022/11/09 02:21:52;;;;;;;19.05;12.50;;;13.10;84.70;;;;;;5020411;28;20038;-84
2022/11/09 02:24:37;;;;;;;20.10;12.27;;;13.00;84.30;;;;;;5070060;28;20379;-86
2022/11/09 02:27:05;;;;;;;22.25;12.90;;;13.10;84.10;;;;;;5058527;28;20028;-86
2022/11/09 02:29:40;;;;;;;20.73;13.20;;;13.10;84.00;;;;;;5063567;28;20020;-84
2022/11/09 02:32:10;;;;;;;17.70;11.43;;;13.20;84.30;;;;;;5066389;28;20025;-84
2022/11/09 02:34:36;;;;;;;18.08;11.95;;;13.20;84.30;;;;;;5064736;28;20412;-86
2022/11/09 02:37:02;;;;;;;21.80;13.98;;;;;;;;;;5059543;28;20024;-85
2022/11/09 02:39:28;;;;;;;20.55;11.40;;;13.10;84.00;;;;;;5069730;28;20033;-82
2022/11/09 02:42:03;;;;;;;19.33;12.55;;;13.10;84.30;;;;;;5047537;28;20048;-87
2022/11/09 02:44:33;;;;;;;21.88;13.63;;;13.10;84.50;;;;;;5052039;28;20060;-86
2022/11/09 02:46:59;;;;;;;22.63;11.43;;;13.10;84.50;;;;;;5047691;28;20432;-85
2022/11/09 02:49:24;;;;;;;20.40;12.55;;;13.00;84.50;;;;;;5068861;28;20029;-78
2022/11/09 02:51:50;;;;;;;16.13;10.48;;;13.00;84.80;;;;;;5045905;28;20427;-78
2022/11/09 02:54:16;;;;;;;18.38;10.48;;;13.00;84.60;;;;;;5067770;28;20040;-78
2022/11/09 02:56:42;;;;;;;18.77;11.35;;;13.00;84.60;;;;;;5057606;28;20381;-78
2022/11/09 02:59:07;;;;;;;15.68;10.70;;;13.10;84.60;;;;;;5069080;28;20043;-79
2022/11/09 03:01:33;;;;;;;17.42;10.05;;;13.10;84.10;;;;;;5062664;28;20064;-77
2022/11/09 03:03:59;;;;;;;17.58;10.55;;;13.10;84.50;;;;;;5057580;28;20033;-80
2022/11/09 03:06:33;;;;;;;17.10;10.88;;;13.10;96.20;;;;;;5045184;28;20029;-78
2022/11/09 03:09:04;;;;;;;15.50;10.02;;;13.10;84.50;;;;;;5068815;28;20036;-79
2022/11/09 03:11:30;;;;;;;14.02;9.88;;;13.10;84.10;;;;;;5062964;28;20036;-78
2022/11/09 03:13:56;;;;;;;15.93;10.80;;;13.20;84.40;;;;;;5065577;28;20036;-80
2022/11/09 03:16:23;;;;;;;14.52;9.95;;;13.20;84.20;;;;;;5055375;28;20032;-78
2022/11/09 03:18:48;;;;;;;17.40;11.05;;;13.20;84.20;;;;;;5068969;28;20378;-78
2022/11/09 03:21:14;;;;;;;13.60;9.30;;;13.20;84.20;;;;;;5062505;28;20036;-78
2022/11/09 03:23:40;;;;;;;15.93;10.32;;;13.30;84.20;;;;;;5058770;28;20060;-78
2022/11/09 03:26:05;;;;;;;15.18;10.25;;;13.20;83.60;;;;;;5043854;28;20030;-78
2022/11/09 03:28:31;;;;;;;21.88;10.23;;;13.20;90.30;;;;;;5058921;28;20464;-77
2022/11/09 03:30:57;;;;;;;14.93;9.65;;;13.10;83.80;;;;;;5063484;28;20032;-78
2022/11/09 03:33:22;;;;;;;15.77;10.65;;;13.10;84.10;;;;;;5063219;28;20120;-78
2022/11/09 03:35:48;;;;;;;17.00;11.48;;;13.10;85.00;;;;;;5043986;28;20104;-77
2022/11/09 03:38:14;;;;;;;16.48;9.98;;;13.00;84.90;;;;;;5054339;28;20422;-77
2022/11/09 03:40:39;;;;;;;18.02;11.70;;;12.80;85.00;;;;;;5040554;28;20033;-77
2022/11/09 03:43:05;;;;;;;17.75;11.45;;;12.80;85.30;;;;;;5047311;28;20039;-77
2022/11/09 03:45:31;;;;;;;15.60;9.90;;;12.80;84.80;;;;;;5043618;28;20029;-78
2022/11/09 03:47:59;;;;;;;14.88;8.52;;;12.70;84.90;;;;;;5051432;28;20377;-82
2022/11/09 03:50:29;;;;;;;16.27;10.15;;;12.70;85.50;;;;;;5048202;28;20027;-82
2022/11/09 03:52:56;;;;;;;15.18;9.52;;;12.70;85.30;;;;;;5044544;28;20116;-82
2022/11/09 03:55:22;;;;;;;15.40;9.40;;;12.80;84.60;;;;;;5038236;28;20541;-82
2022/11/09 03:57:48;;;;;;;15.13;10.65;;;12.80;85.00;;;;;;5045682;28;20115;-82
2022/11/09 04:00:18;;;;;;;13.65;9.43;;;12.80;85.10;;;;;;5047329;28;20030;-83
2022/11/09 04:02:44;;;;;;;13.90;9.15;;;12.80;84.60;;;;;;5048707;28;20044;-82
2022/11/09 04:05:10;;;;;;;16.48;9.30;;;12.80;84.50;;;;;;5046932;28;20026;-83
2022/11/09 04:07:37;;;;;;;15.35;9.68;;;12.90;84.90;;;;;;5048602;28;20060;-84
2022/11/09 04:10:04;;;;;;;14.73;9.98;;;12.90;84.90;;;;;;5046744;28;20030;-84
2022/11/09 04:12:30;;;;;;;13.38;9.20;;;12.90;84.30;;;;;;5046741;28;20033;-83
2022/11/09 04:14:56;;;;;;;16.83;9.98;;;13.00;84.70;;;;;;5049357;28;20018;-82
2022/11/09 04:17:22;;;;;;;15.55;9.13;;;13.00;84.80;;;;;;5045923;28;20025;-82
2022/11/09 04:20:00;;;;;;;14.23;9.32;;;13.00;84.70;;;;;;5045158;28;20029;-84
2022/11/09 04:22:26;;;;;;;14.48;8.98;;;13.00;84.70;;;;;;5076953;28;20033;-82
2022/11/09 04:24:52;;;;;;;12.68;8.95;;;13.10;84.50;;;;;;5047555;28;20025;-82
2022/11/09 04:27:18;;;;;;;13.85;9.07;;;13.10;84.50;;;;;;5045097;28;20028;-82
2022/11/09 04:29:43;;;;;;;16.95;10.20;;;13.10;84.70;;;;;;5049040;28;20044;-82
2022/11/09 04:32:09;;;;;;;14.75;10.00;;;13.10;85.10;;;;;;5047872;28;20021;-82
2022/11/09 04:34:35;;;;;;;14.15;8.68;;;13.10;85.20;;;;;;5047789;28;20033;-82
2022/11/09 04:37:00;;;;;;;15.98;10.32;;;13.00;85.30;;;;;;5042652;28;20037;-77
2022/11/09 04:39:26;;;;;;;14.80;9.57;;;13.00;85.30;;;;;;5051215;28;20035;-76
2022/11/09 04:41:52;;;;;;;16.25;10.30;;;12.90;85.50;;;;;;5019230;28;20042;-77
2022/11/09 04:44:17;;;;;;;14.85;9.88;;;12.90;85.60;;;;;;5017763;28;20038;-76
2022/11/09 04:46:43;;;;;;;15.07;9.65;;;12.80;85.10;;;;;;5032280;28;20025;-78
2022/11/09 04:49:09;;;;;;;15.30;10.30;;;12.90;85.60;;;;;;5043575;28;20036;-78
2022/11/09 04:51:34;;;;;;;15.43;10.07;;;12.90;85.40;;;;;;5047135;28;20033;-77
2022/11/09 04:54:00;;;;;;;15.65;9.95;;;13.00;85.50;;;;;;5049866;28;20036;-83
2022/11/09 04:56:26;;;;;;;14.18;10.10;;;13.00;85.30;;;;;;5023362;28;20036;-83
2022/11/09 04:58:51;;;;;;;17.83;11.27;;;13.00;85.30;;;;;;5047460;28;20032;-83
2022/11/09 05:01:17;;;;;;;16.10;9.48;;;13.00;85.10;;;;;;5046173;28;20382;-87
2022/11/09 05:03:43;;;;;;;14.35;9.52;;;13.00;85.10;;;;;;5036287;28;20034;-90
2022/11/09 05:08:54;;;;;;;13.77;9.63;;;12.90;85.40;;;;;;5028955;28;20036;-89
2022/11/09 05:11:20;;;;;;;15.77;9.68;;;12.90;85.40;;;;;;5031440;28;20040;-87
2022/11/09 05:13:50;;;;;;;16.30;10.05;;;12.90;85.30;;;;;;5028536;28;20029;-87
2022/11/09 05:16:16;;;;;;;13.60;9.40;;;12.90;85.40;;;;;;5036058;28;20453;-88
2022/11/09 05:18:42;;;;;;;15.95;9.57;;;13.00;85.70;;;;;;5048204;28;20034;-88
2022/11/09 05:21:08;;;;;;;15.35;9.43;;;13.00;85.70;;;;;;5025680;28;20108;-89
2022/11/09 05:26:18;;;;;;;16.67;10.15;;;12.80;85.70;;;;;;5036272;28;20036;-80
2022/11/09 05:28:44;;;;;;;16.17;9.65;;;13.00;85.80;;;;;;5047975;28;20033;-79
2022/11/09 05:31:09;;;;;;;15.15;8.77;;;13.00;85.70;;;;;;5027155;28;20033;-80
2022/11/09 05:33:35;;;;;;;15.77;9.82;;;13.00;85.70;;;;;;5034241;28;20044;-80
2022/11/09 05:36:01;;;;;;;17.90;10.13;;;13.00;85.80;;;;;;5018318;28;20430;-80
2022/11/09 05:38:27;;;;;;;14.25;9.80;;;13.00;85.90;;;;;;5059457;28;20450;-88
2022/11/09 05:40:53;;;;;;;12.50;8.15;;;13.00;85.30;;;;;;5032574;28;20041;-89
2022/11/09 05:43:19;;;;;;;13.93;9.00;;;13.10;85.70;;;;;;5033222;28;20033;-89
2022/11/09 05:45:46;;;;;;;13.80;8.52;;;13.10;85.80;;;;;;5040145;28;20029;-90
2022/11/09 05:48:14;;;;;;;13.23;9.07;;;13.10;85.80;;;;;;5034270;28;20027;-88
2022/11/09 05:50:41;;;;;;;14.15;8.95;;;13.10;90.10;;;;;;5053388;28;20036;-87
2022/11/09 05:53:07;;;;;;;14.10;8.93;;;13.30;85.10;;;;;;5038005;28;20371;-85
2022/11/09 05:55:33;;;;;;;12.52;8.65;;;13.20;92.40;;;;;;5048302;28;20068;-87
2022/11/09 05:57:59;;;;;;;15.25;9.50;;;13.30;85.90;;;;;;5031281;28;20026;-86
2022/11/09 06:00:25;;;;;;;11.68;8.40;;;13.30;85.30;;;;;;5024538;28;20034;-80
2022/11/09 06:02:51;;;;;;;13.57;8.75;;;13.30;85.30;;;;;;5027704;28;20040;-85
2022/11/09 06:05:17;;;;;;;11.65;9.00;;;13.30;85.30;;;;;;5020292;28;20025;-88
2022/11/09 06:07:42;;;;;;;13.55;8.70;;;13.30;85.40;;;;;;5046035;28;20056;-87
2022/11/09 06:10:08;;;;;;;14.20;9.25;;;13.30;85.10;;;;;;5038801;28;20029;-90
2022/11/09 06:12:34;;;;;;;16.98;9.13;;;13.10;84.90;;;;;;5037006;28;20033;-88
2022/11/09 06:15:00;;;;;;;14.05;8.23;;;13.30;85.10;;;;;;5053122;28;20470;-88
2022/11/09 06:17:26;;;;;;;14.50;8.52;;;13.30;85.50;;;;;;5050322;28;20033;-89
2022/11/09 06:19:52;;;;;;;10.80;8.25;;;13.30;85.50;;;;;;5032972;28;20025;-89
2022/11/09 06:22:17;;;;;;;10.40;7.40;;;13.20;85.70;;;;;;5049522;28;20029;-89
2022/11/09 06:24:43;;;;;;;14.00;8.68;;;13.20;85.80;;;;;;5053490;28;20465;-92
2022/11/09 06:27:09;;;;;;;11.73;7.95;;;13.20;85.80;;;;;;5042784;28;20025;-84
2022/11/09 06:29:35;;;;;;;13.65;8.95;;;13.20;85.90;;;;;;5035535;28;20091;-84
2022/11/09 06:32:00;;;;;;;12.80;8.20;;;13.30;85.40;;;;;;5041778;28;20485;-84
2022/11/09 06:34:26;;;;;;;14.38;8.98;;;13.30;85.20;;;;;;5051791;28;20087;-84
2022/11/09 06:36:52;;;;;;;12.20;8.02;;;13.40;85.20;;;;;;5046127;28;20037;-83
2022/11/09 06:39:18;;;;;;;10.30;7.63;;;13.40;85.50;;;;;;5042757;28;20080;-83
2022/11/09 06:41:43;;;;;;;13.10;8.73;;;13.40;85.00;;;;;;5042208;28;20047;-75
2022/11/09 06:44:10;;;;;;;11.80;7.65;;;13.50;84.90;;;;;;5051033;28;20439;-75
2022/11/09 06:46:36;;;;;;;13.57;8.00;;;13.40;85.30;;;;;;5040786;28;20083;-75
2022/11/09 06:49:02;;;;;;;15.63;9.05;;;13.40;85.30;;;;;;5038859;28;20025;-74
2022/11/09 06:51:28;;;;;;;10.40;7.47;;;13.40;85.10;;;;;;5051773;28;20079;-75
2022/11/09 06:53:54;;;;;;;15.15;8.32;;;13.40;85.60;;;;;;5046716;28;20043;-72
2022/11/09 06:56:19;;;;;;;13.77;8.13;;;13.40;87.20;;;;;;5050681;28;20037;-74
2022/11/09 06:58:45;;;;;;;13.68;7.40;;;13.50;85.90;;;;;;5041031;28;20499;-75
2022/11/09 07:01:15;;;;;;;11.20;8.07;;;13.50;85.70;;;;;;5032623;28;20076;-75
2022/11/09 07:03:41;;;;;;;13.93;7.70;;;13.50;85.10;;;;;;5039503;28;20097;-76
2022/11/09 07:06:09;;;;;;;13.30;8.05;;;13.50;85.20;;;;;;5048129;28;20037;-75
2022/11/09 07:08:35;;;;;;;14.70;8.70;;;13.50;85.60;;;;;;5037164;28;20474;-83
2022/11/09 07:11:11;;;;;;;11.40;8.02;;;13.50;85.10;;;;;;5052099;28;20082;-74
2022/11/09 07:13:37;;;;;;;14.10;8.25;;;13.60;84.80;;;;;;5041641;28;20025;-77
2022/11/09 07:16:06;;;;;;;11.75;8.02;;;;;;;;;;5043923;28;20037;-82
2022/11/09 07:18:33;;;;;;;14.57;8.25;;;13.60;84.80;;;;;;5045962;28;20029;-84
2022/11/09 07:20:58;;;;;;;9.45;7.35;;;13.70;85.20;;;;;;5028031;28;20038;-83
2022/11/09 07:23:24;;;;;;;11.35;7.47;;;;;;;;;;5047318;28;20370;-83
2022/11/09 07:25:51;;;;;;;13.13;8.32;;;13.70;84.50;;;;;;5031391;28;20080;-82
2022/11/09 07:28:17;;;;;;;12.45;7.75;;;;;;;;;;5019083;28;20032;-82
2022/11/09 07:30:43;;;;;;;13.18;8.18;;;13.70;84.10;;;;;;5025153;28;20033;-74
2022/11/09 07:33:57;;;;;;;13.45;8.38;;;13.70;84.20;;;;;;5030027;28;20052;-81
2022/11/09 07:36:24;;;;;;;13.13;7.85;;;13.70;84.70;;;;;;5033841;28;20037;-81
2022/11/09 07:38:50;;;;;;;11.25;7.93;;;13.90;92.60;;;;;;5018091;28;20157;-73
2022/11/09 07:41:16;;;;;;;11.07;7.40;;;13.80;84.80;;;;;;5015289;28;20429;-74
2022/11/09 07:43:42;;;;;;;14.70;8.30;;;13.90;84.60;;;;;;5029521;28;20040;-74
2022/11/09 07:46:07;;;;;;;13.68;7.82;;;13.90;84.10;;;;;;5029403;28;20026;-74
2022/11/09 07:48:33;;;;;;;12.68;7.60;;;13.50;84.10;;;;;;5023295;28;20409;-74
2022/11/09 07:51:02;;;;;;;14.38;9.18;;;14.10;84.30;;;;;;5023455;28;20160;-74
2022/11/09 07:53:28;;;;;;;12.05;7.70;;;14.20;84.30;;;;;;5024132;28;20032;-74
2022/11/09 07:55:58;;;;;;;11.13;7.82;;;14.20;83.10;;;;;;5030710;28;20029;-73
2022/11/09 07:58:24;;;;;;;12.68;7.40;;;14.20;83.70;;;;;;5032088;28;20029;-73
2022/11/09 08:00:49;;;;;;;11.35;7.13;;;14.20;82.80;;;;;;5035263;28;20386;-80
2022/11/09 08:03:18;;;;;;;11.95;6.93;;;14.30;83.00;;;;;;5026649;28;20025;-81
2022/11/09 08:05:43;;;;;;;9.52;6.93;;;14.30;82.90;;;;;;5016377;28;20034;-82
2022/11/09 08:08:11;;;;;;;14.18;8.43;;;14.30;82.80;;;;;;5024858;28;20030;-84
2022/11/09 08:10:38;;;;;;;13.75;7.60;;;14.40;82.90;;;;;;5028115;28;20371;-74
2022/11/09 08:13:07;;;;;;;12.77;8.50;;;14.50;82.80;;;;;;5031833;28;20040;-75
2022/11/09 08:15:33;;;;;;;11.88;7.63;;;14.50;82.60;;;;;;5033099;28;20091;-74
2022/11/09 08:18:04;;;;;;;11.98;7.63;;;14.60;82.50;;;;;;5033225;28;20075;-76
2022/11/09 08:20:31;;;;;;;12.63;7.45;;;14.60;82.50;;;;;;5027955;28;20090;-72
2022/11/09 08:22:56;;;;;;;16.75;9.02;;;14.60;82.60;;;;;;5025420;28;20482;-73
2022/11/09 08:25:22;;;;;;;14.63;7.68;;;14.70;82.00;;;;;;5026210;28;20088;-73
2022/11/09 08:27:48;;;;;;;16.05;8.45;;;14.70;82.20;;;;;;5024400;28;22307;-72
2022/11/09 08:30:17;;;;;;;10.52;7.55;;;14.70;81.80;;;;;;5016022;28;20030;-73
2022/11/09 08:32:43;;;;;;;10.90;7.95;;;14.70;82.30;;;;;;5019822;28;20067;-79
2022/11/09 08:35:11;;;;;;;12.48;6.95;;;14.60;82.40;;;;;;5031869;28;20029;-72
2022/11/09 08:37:37;;;;;;;13.10;8.30;;;14.60;81.80;;;;;;5030048;28;20076;-73
2022/11/09 08:40:04;;;;;;;10.18;6.88;;;14.70;82.30;;;;;;5024058;28;20068;-72
2022/11/09 08:42:29;;;;;;;11.02;7.40;;;14.70;82.40;;;;;;5041230;28;20032;-72
2022/11/09 08:44:55;;;;;;;11.70;7.78;;;14.80;82.60;;;;;;5044654;28;20481;-81
2022/11/09 08:47:21;;;;;;;13.40;7.47;;;14.90;82.50;;;;;;5049987;28;20026;-83
2022/11/09 08:49:47;;;;;;;10.40;7.28;;;15.00;82.30;;;;;;5030155;28;20033;-81
2022/11/09 08:52:13;;;;;;;10.43;7.10;;;15.00;81.60;;;;;;5046520;28;20029;-80
2022/11/09 08:54:38;;;;;;;12.85;7.60;;;15.00;81.80;;;;;;5043582;28;20082;-82
2022/11/09 08:57:04;;;;;;;12.02;7.88;;;15.10;81.90;;;;;;5053441;28;20036;-82
2022/11/09 08:59:30;;;;;;;14.77;8.18;;;15.10;81.40;;;;;;5054075;28;20056;-82
2022/11/09 09:01:55;;;;;;;12.15;7.70;;;15.10;80.50;;;;;;5053639;28;20043;-82
2022/11/09 09:04:21;;;;;;;15.02;7.00;;;15.10;81.00;;;;;;5034760;28;20025;-82
2022/11/09 09:06:47;;;;;;;10.15;7.10;;;15.10;80.90;;;;;;5039543;28;20033;-81
2022/11/09 09:09:12;;;;;;;10.00;6.80;;;15.10;80.00;;;;;;5053209;28;20024;-81
2022/11/09 09:11:38;;;;;;;12.02;6.55;;;15.10;80.60;;;;;;5052457;28;20036;-82
2022/11/09 09:14:04;;;;;;;12.93;7.22;;;15.00;80.30;;;;;;5044148;28;20111;-82
2022/11/09 09:16:30;;;;;;;12.52;7.70;;;15.10;80.50;;;;;;5042995;28;20370;-74
2022/11/09 09:18:55;;;;;;;17.30;7.38;;;15.10;80.10;;;;;;5051477;28;20036;-74
2022/11/09 09:21:21;;;;;;;14.35;7.35;;;15.10;80.30;;;;;;5046524;28;20042;-75
2022/11/09 09:23:48;;;;;;;12.27;7.90;;;15.10;80.50;;;;;;5040836;28;20051;-74
2022/11/09 09:26:21;;;;;;;11.48;7.45;;;15.10;80.60;;;;;;5046709;28;20035;-75
2022/11/09 09:28:47;;;;;;;12.80;7.25;;;15.20;81.10;;;;;;5046521;28;20025;-75
2022/11/09 09:31:13;;;;;;;16.30;7.53;;;15.30;80.90;;;;;;5039164;28;20048;-83
2022/11/09 09:33:39;;;;;;;13.65;8.18;;;15.50;80.90;;;;;;5036763;28;20481;-83
2022/11/09 09:36:05;;;;;;;14.55;7.95;;;15.60;80.30;;;;;;5031375;28;20029;-82
2022/11/09 09:38:30;;;;;;;14.52;7.50;;;15.60;80.20;;;;;;5035025;28;20083;-82
2022/11/09 09:40:59;;;;;;;13.07;7.90;;;15.80;85.40;;;;;;5047589;28;20036;-82
2022/11/09 09:43:39;;;;;;;14.73;7.88;;;15.80;79.20;;;;;;5033727;28;20026;-82
2022/11/09 09:46:12;;;;;;;10.02;6.60;;;15.80;79.50;;;;;;5031541;28;20030;-84
2022/11/09 09:48:56;;;;;;;20.25;7.97;;;15.80;79.50;;;;;;5036284;28;20033;-75
2022/11/09 09:52:02;;;;;;;14.77;7.32;;;15.90;79.60;;;;;;5070758;28;20043;-77
2022/11/09 09:54:34;;;;;;;13.70;8.38;;;15.90;78.20;;;;;;5009079;28;20041;-74
2022/11/09 09:57:01;;;;;;;12.38;8.57;;;16.00;77.80;;;;;;5031259;28;20079;-75
2022/11/09 09:59:39;;;;;;;11.57;7.63;;;16.10;77.90;;;;;;5033869;28;20037;-75
2022/11/09 10:02:29;;;;;;;13.68;8.38;;;16.20;77.80;;;;;;5032905;28;20045;-72
2022/11/09 10:04:57;;;;;;;15.00;8.13;;;16.20;78.20;;;;;;5036234;28;20041;-74
2022/11/09 10:07:25;;;;;;;15.77;9.23;;;16.20;77.80;;;;;;5033892;28;20021;-74
2022/11/09 10:10:35;;;;;;;13.13;8.68;;;16.30;77.30;;;;;;5041106;28;20042;-73
2022/11/09 10:13:40;;;;;;;12.82;9.30;;;16.30;77.20;;;;;;4974471;28;20039;-82
2022/11/09 10:16:09;;;;;;;17.05;10.38;;;16.40;77.40;;;;;;4999194;28;20100;-82
2022/11/09 10:19:00;;;;;;;14.77;9.48;;;16.40;76.30;;;;;;5027314;28;20048;-82
2022/11/09 10:21:50;;;;;;;16.90;8.88;;;16.40;75.80;;;;;;5022792;28;20526;-81
2022/11/09 10:24:18;;;;;;;16.13;9.37;;;16.60;76.20;;;;;;5045977;28;20052;-81
2022/11/09 10:26:51;;;;;;;18.95;12.15;;;16.60;75.50;;;;;;5027630;28;20466;-82
2022/11/09 10:29:32;;;;;;;18.25;10.82;;;16.60;75.20;;;;;;5028085;28;20048;-81
2022/11/09 10:32:21;;;;;;;17.25;9.25;;;16.60;75.70;;;;;;5032018;28;20533;-80
2022/11/09 10:35:06;;;;;;;15.60;8.85;;;16.70;75.50;;;;;;5032546;28;20044;-83
2022/11/09 10:37:32;;;;;;;14.13;9.05;;;;;;;;;;5018778;28;20533;-83
2022/11/09 10:40:18;;;;;;;13.38;9.73;;;16.80;75.30;;;;;;5036673;28;20025;-83
2022/11/09 10:42:49;;;;;;;16.70;10.23;;;16.80;74.70;;;;;;5035271;28;20485;-80
2022/11/09 10:45:36;;;;;;;16.63;10.75;;;16.90;73.80;;;;;;5033118;28;20435;-82
2022/11/09 10:48:04;;;;;;;17.38;10.65;;;16.90;74.60;;;;;;5035580;28;20025;-82
2022/11/09 10:50:51;;;;;;;16.10;10.65;;;17.00;74.20;;;;;;5034966;28;20030;-83
2022/11/09 10:53:29;;;;;;;17.75;10.82;;;17.10;74.70;;;;;;5035217;28;20029;-82
2022/11/09 10:56:12;;;;;;;19.27;10.75;;;17.30;75.00;;;;;;5028819;28;20033;-83
2022/11/09 10:58:49;;;;;;;22.75;12.82;;;17.60;75.00;;;;;;5016924;28;20064;-82
2022/11/09 11:01:20;;;;;;;22.70;12.38;;;17.80;72.10;;;;;;5024251;28;20096;-82
2022/11/09 11:03:53;;;;;;;23.30;13.82;;;17.80;72.20;;;;;;5040509;28;20032;-82
2022/11/09 11:06:21;;;;;;;18.52;11.52;;;17.70;71.50;;;;;;5041531;28;20021;-81
2022/11/09 11:09:12;;;;;;;19.40;11.77;;;17.60;71.90;;;;;;5048095;28;20035;-83
2022/11/09 11:11:39;;;;;;;18.20;10.57;;;17.60;73.00;;;;;;5052755;28;20037;-83
2022/11/09 11:14:19;;;;;;;19.42;12.27;;;17.60;72.30;;;;;;5041676;28;20025;-82
2022/11/09 11:16:46;;;;;;;17.27;10.85;;;17.60;91.70;;;;;;5078434;28;20060;-82
2022/11/09 11:19:37;;;;;;;16.42;11.23;;;17.70;72.30;;;;;;5055896;28;20028;-74
2022/11/09 11:22:17;;;;;;;16.45;10.70;;;17.80;72.50;;;;;;5030442;28;20033;-74
2022/11/09 11:24:56;;;;;;;18.40;10.45;;;17.70;72.40;;;;;;5076974;28;20481;-73
2022/11/09 11:27:43;;;;;;;16.60;10.75;;;17.80;72.10;;;;;;5049659;28;20104;-73
2022/11/09 11:30:09;;;;;;;16.63;11.73;;;17.80;71.80;;;;;;5026602;28;20477;-73
2022/11/09 11:32:35;;;;;;;17.83;10.40;;;17.80;72.50;;;;;;5055426;28;20021;-74
2022/11/09 11:35:23;;;;;;;19.73;12.48;;;17.90;73.80;;;;;;5054977;28;20098;-74
2022/11/09 11:38:15;;;;;;;17.52;11.02;;;17.90;72.00;;;;;;5044837;28;20045;-75
2022/11/09 11:40:45;;;;;;;18.23;10.60;;;;;;;;;;5036181;28;20369;-75
2022/11/09 11:43:14;;;;;;;19.20;11.48;;;17.70;72.20;;;;;;5040820;28;20063;-75
2022/11/09 11:45:56;;;;;;;17.20;11.45;;;17.70;72.90;;;;;;5043160;28;20045;-82
2022/11/09 11:48:40;;;;;;;20.85;13.02;;;17.70;72.90;;;;;;5055418;28;20381;-82
2022/11/09 11:51:17;;;;;;;17.88;12.38;;;17.60;72.20;;;;;;5043075;28;20025;-81
2022/11/09 11:53:46;;;;;;;18.08;12.00;;;17.50;72.40;;;;;;5055280;28;20123;-82
2022/11/09 11:56:24;;;;;;;22.70;13.85;;;17.50;73.10;;;;;;5046622;28;20048;-82
2022/11/09 11:59:08;;;;;;;19.88;13.40;;;17.40;72.90;;;;;;5045739;28;20385;-81
2022/11/09 12:01:52;;;;;;;20.42;13.55;;;17.40;73.30;;;;;;5043794;28;20037;-84
2022/11/09 12:04:30;;;;;;;24.50;14.23;;;17.40;72.80;;;;;;5017643;28;20030;-80
2022/11/09 12:07:04;;;;;;;20.52;13.60;;;17.50;73.40;;;;;;5023674;28;20033;-82
2022/11/09 12:09:46;;;;;;;21.30;14.20;;;17.70;73.30;;;;;;5028893;28;20037;-83
2022/11/09 12:12:21;;;;;;;19.30;13.00;;;18.20;73.30;;;;;;5057406;28;20038;-82
2022/11/09 12:15:16;;;;;;;21.15;13.73;;;18.50;72.10;;;;;;5025731;28;20037;-82
2022/11/09 12:17:57;;;;;;;21.92;13.50;;;18.60;71.40;;;;;;5056597;28;20125;-82
2022/11/09 12:20:37;;;;;;;20.15;12.85;;;18.70;70.90;;;;;;5021159;28;20022;-81
2022/11/09 12:23:24;;;;;;;24.17;13.80;;;18.70;70.90;;;;;;5014932;28;20478;-81
2022/11/09 12:25:52;;;;;;;21.63;15.10;;;18.70;71.30;;;;;;5024054;28;20783;-81
2022/11/09 12:28:44;;;;;;;22.17;14.77;;;18.50;69.40;;;;;;5028004;28;20026;-83
2022/11/09 12:31:26;;;;;;;26.85;16.13;;;18.50;69.90;;;;;;5026895;28;21401;-81
2022/11/09 12:34:04;;;;;;;22.30;14.93;;;18.50;69.80;;;;;;5031077;28;20075;-81
2022/11/09 12:36:39;;;;;;;26.00;15.82;;;18.50;70.20;;;;;;5027899;28;20128;-74
2022/11/09 12:39:42;;;;;;;25.30;16.02;;;18.90;68.70;;;;;;5031246;28;20017;-74
2022/11/09 12:42:16;;;;;;;23.35;16.00;;;19.20;69.60;;;;;;5031951;28;20112;-75
2022/11/09 12:45:04;;;;;;;23.42;16.80;;;19.80;69.30;;;;;;5031087;28;20087;-75
2022/11/09 12:47:38;;;;;;;30.35;16.95;;;20.80;65.20;;;;;;5026430;28;20022;-75
2022/11/09 12:50:05;;;;;;;27.83;16.95;;;21.70;64.00;;;;;;5016255;28;20030;-74
2022/11/09 12:52:31;;;;;;;24.90;16.40;;;21.90;59.70;;;;;;5017186;28;20105;-74
2022/11/09 12:55:00;;;;;;;26.83;18.42;;;22.30;61.20;;;;;;5020947;28;20565;-75
2022/11/09 12:57:28;;;;;;;26.83;17.92;;;22.30;61.50;;;;;;5016460;28;20048;-83